Airfield :
LOGIN :

Register | Disclaimer

   EN    FR    IT 

 










Legend :    VFR   Marginal VFR   IFR   Intensive IFR   Very Intensive IFR
Visi :
Ceiling :
>= 8 km
>= 3000ft
5 to 8 km
1000 to 3000 ft
1500m to 5 km
500 to 1000 ft
800 to 1500m
200 to 500 ft
< 800m
< 200 ft
Symbols :   Thunderstorms  Fog  Heavy snow  Heavy precipitations  Wind > 20 kt
SIGMETs :     Misc.  Thunderstorms  Icing  Turbulence  Mountain Waves  Volcanic Ashes







- Airport Elevation : 75 ft
- IATA code : YEO


EGDY - RNAS Yeovilton

CURRENT METAR :
  • 251150Z 35011KT 9999 SCT045 SCT055 09/M03 Q1015 BLU NOSIG

EXPIRED METARs :
  • 251050Z 36012KT 9999 SCT040 SCT050 08/M03 Q1015 BLU NOSIG
  • 250950Z 36011KT 9999 SCT045 08/M03 Q1015 RESHRA BLU NOSIG

TAF TAF EGDY
Valid from the 25 at 12:00 until the 25 at 21:00 UTC


250957Z 2512/2521 35015KT 9999 SCT030
TEMPO 2512/2521 35015G25KT 6000 SHRA BKN025TCU
PROB40
TEMPO 2512/2521 4000 +SHRA SHGS SCT014 BKN024CB
No reported NOTAMs for that airfield.



MET'MAP, your aeronautical weather chart ! - Copyright ORBIFLY December 2007 - Disclaimer

ORBIFLY MET'MAP TEAM :

Programming & Development : Alexandra Zaïnal
Concept & Development : Baudouin d'Aumeries
Co-Development & Prog : Marc-Olivier Méhu
Technical & hardware support : Manuel Goepfert

Contact : metmap@orbifly.com




SOURCES & CREDITS :

   NOAA